sensor_id;sensor_type;location;lat;lon;timestamp;P1;durP1;ratioP1;P2;durP2;ratioP2
70026;SDS011;57506;50.092;15.804;2023-10-13T00:02:01;24.60;;;22.85;;
70026;SDS011;57506;50.092;15.804;2023-10-13T00:04:30;23.65;;;22.15;;
70026;SDS011;57506;50.092;15.804;2023-10-13T00:06:58;24.95;;;23.40;;
70026;SDS011;57506;50.092;15.804;2023-10-13T00:09:28;22.17;;;20.67;;
70026;SDS011;57506;50.092;15.804;2023-10-13T00:12:03;23.35;;;21.85;;
70026;SDS011;57506;50.092;15.804;2023-10-13T00:14:34;23.40;;;22.00;;
70026;SDS011;57506;50.092;15.804;2023-10-13T00:17:00;22.50;;;21.10;;
70026;SDS011;57506;50.092;15.804;2023-10-13T00:19:33;23.30;;;21.90;;
70026;SDS011;57506;50.092;15.804;2023-10-13T00:22:07;21.38;;;20.08;;
70026;SDS011;57506;50.092;15.804;2023-10-13T00:24:37;23.10;;;21.70;;
70026;SDS011;57506;50.092;15.804;2023-10-13T00:27:17;22.17;;;20.88;;
70026;SDS011;57506;50.092;15.804;2023-10-13T00:30:14;22.38;;;21.00;;
70026;SDS011;57506;50.092;15.804;2023-10-13T00:32:58;23.17;;;21.77;;
70026;SDS011;57506;50.092;15.804;2023-10-13T00:35:25;22.05;;;20.75;;
70026;SDS011;57506;50.092;15.804;2023-10-13T00:37:57;22.15;;;20.85;;
70026;SDS011;57506;50.092;15.804;2023-10-13T00:40:29;22.38;;;21.02;;
70026;SDS011;57506;50.092;15.804;2023-10-13T00:42:57;21.85;;;20.55;;
70026;SDS011;57506;50.092;15.804;2023-10-13T00:45:44;22.90;;;21.50;;
70026;SDS011;57506;50.092;15.804;2023-10-13T00:48:32;23.40;;;22.00;;
70026;SDS011;57506;50.092;15.804;2023-10-13T00:51:14;23.05;;;21.65;;
70026;SDS011;57506;50.092;15.804;2023-10-13T00:54:01;22.48;;;21.08;;
70026;SDS011;57506;50.092;15.804;2023-10-13T00:56:32;23.10;;;21.70;;
70026;SDS011;57506;50.092;15.804;2023-10-13T00:58:59;23.17;;;21.77;;
70026;SDS011;57506;50.092;15.804;2023-10-13T01:01:30;22.90;;;21.50;;
70026;SDS011;57506;50.092;15.804;2023-10-13T01:03:58;22.25;;;20.92;;
70026;SDS011;57506;50.092;15.804;2023-10-13T01:06:24;25.27;;;23.67;;
70026;SDS011;57506;50.092;15.804;2023-10-13T01:09:02;22.20;;;20.90;;
70026;SDS011;57506;50.092;15.804;2023-10-13T01:11:46;23.40;;;22.00;;
70026;SDS011;57506;50.092;15.804;2023-10-13T01:14:17;22.65;;;21.25;;
70026;SDS011;57506;50.092;15.804;2023-10-13T01:16:47;22.70;;;21.30;;
70026;SDS011;57506;50.092;15.804;2023-10-13T01:19:17;22.83;;;21.42;;
70026;SDS011;57506;50.092;15.804;2023-10-13T01:21:47;21.52;;;20.23;;
70026;SDS011;57506;50.092;15.804;2023-10-13T01:24:13;23.20;;;21.80;;
70026;SDS011;57506;50.092;15.804;2023-10-13T01:26:43;22.90;;;21.50;;
70026;SDS011;57506;50.092;15.804;2023-10-13T01:29:09;22.67;;;21.27;;
70026;SDS011;57506;50.092;15.804;2023-10-13T01:31:42;22.02;;;20.73;;
70026;SDS011;57506;50.092;15.804;2023-10-13T01:36:53;21.30;;;20.00;;
70026;SDS011;57506;50.092;15.804;2023-10-13T01:39:20;23.25;;;21.85;;
70026;SDS011;57506;50.092;15.804;2023-10-13T01:41:51;22.80;;;21.40;;
70026;SDS011;57506;50.092;15.804;2023-10-13T01:44:21;22.60;;;21.20;;
70026;SDS011;57506;50.092;15.804;2023-10-13T01:46:47;22.83;;;21.43;;
70026;SDS011;57506;50.092;15.804;2023-10-13T01:49:13;22.17;;;20.88;;
70026;SDS011;57506;50.092;15.804;2023-10-13T01:51:41;22.75;;;21.35;;
70026;SDS011;57506;50.092;15.804;2023-10-13T01:54:07;22.08;;;20.77;;
70026;SDS011;57506;50.092;15.804;2023-10-13T01:56:40;22.87;;;21.47;;
70026;SDS011;57506;50.092;15.804;2023-10-13T01:59:12;24.33;;;22.83;;
70026;SDS011;57506;50.092;15.804;2023-10-13T02:01:38;23.90;;;22.50;;
70026;SDS011;57506;50.092;15.804;2023-10-13T02:04:10;23.40;;;22.00;;
70026;SDS011;57506;50.092;15.804;2023-10-13T02:06:36;22.77;;;21.38;;
70026;SDS011;57506;50.092;15.804;2023-10-13T02:09:04;21.77;;;20.47;;
70026;SDS011;57506;50.092;15.804;2023-10-13T02:11:51;22.90;;;21.50;;
70026;SDS011;57506;50.092;15.804;2023-10-13T02:14:21;22.98;;;21.58;;
70026;SDS011;57506;50.092;15.804;2023-10-13T02:16:51;22.73;;;21.33;;
70026;SDS011;57506;50.092;15.804;2023-10-13T02:19:21;22.83;;;21.42;;
70026;SDS011;57506;50.092;15.804;2023-10-13T02:21:47;23.27;;;21.87;;
70026;SDS011;57506;50.092;15.804;2023-10-13T02:24:23;22.20;;;20.88;;
70026;SDS011;57506;50.092;15.804;2023-10-13T02:26:55;23.90;;;22.40;;
70026;SDS011;57506;50.092;15.804;2023-10-13T02:29:27;21.92;;;20.63;;
70026;SDS011;57506;50.092;15.804;2023-10-13T02:31:53;23.20;;;21.80;;
70026;SDS011;57506;50.092;15.804;2023-10-13T02:34:22;22.70;;;21.30;;
70026;SDS011;57506;50.092;15.804;2023-10-13T02:36:48;22.77;;;21.37;;
70026;SDS011;57506;50.092;15.804;2023-10-13T02:39:14;22.57;;;21.17;;
70026;SDS011;57506;50.092;15.804;2023-10-13T02:41:49;23.25;;;21.85;;
70026;SDS011;57506;50.092;15.804;2023-10-13T02:44:15;23.17;;;21.77;;
70026;SDS011;57506;50.092;15.804;2023-10-13T02:46:56;21.37;;;20.07;;
70026;SDS011;57506;50.092;15.804;2023-10-13T02:49:22;21.20;;;19.90;;
70026;SDS011;57506;50.092;15.804;2023-10-13T02:51:51;22.63;;;21.23;;
70026;SDS011;57506;50.092;15.804;2023-10-13T02:54:18;21.13;;;19.83;;
70026;SDS011;57506;50.092;15.804;2023-10-13T02:56:44;23.08;;;21.67;;
70026;SDS011;57506;50.092;15.804;2023-10-13T02:59:23;22.70;;;21.30;;
70026;SDS011;57506;50.092;15.804;2023-10-13T03:02:07;21.30;;;20.00;;
70026;SDS011;57506;50.092;15.804;2023-10-13T03:04:48;22.75;;;21.35;;
70026;SDS011;57506;50.092;15.804;2023-10-13T03:07:14;20.55;;;19.27;;
70026;SDS011;57506;50.092;15.804;2023-10-13T03:09:53;22.88;;;21.48;;
70026;SDS011;57506;50.092;15.804;2023-10-13T03:12:23;22.53;;;21.13;;
70026;SDS011;57506;50.092;15.804;2023-10-13T03:14:58;22.00;;;20.70;;
70026;SDS011;57506;50.092;15.804;2023-10-13T03:17:43;22.13;;;20.83;;
70026;SDS011;57506;50.092;15.804;2023-10-13T03:20:13;21.92;;;20.63;;
70026;SDS011;57506;50.092;15.804;2023-10-13T03:22:41;22.70;;;21.30;;
70026;SDS011;57506;50.092;15.804;2023-10-13T03:25:11;21.53;;;20.23;;
70026;SDS011;57506;50.092;15.804;2023-10-13T03:27:43;22.52;;;21.13;;
70026;SDS011;57506;50.092;15.804;2023-10-13T03:30:17;22.17;;;20.88;;
70026;SDS011;57506;50.092;15.804;2023-10-13T03:32:45;22.20;;;20.90;;
70026;SDS011;57506;50.092;15.804;2023-10-13T03:35:19;22.50;;;21.10;;
70026;SDS011;57506;50.092;15.804;2023-10-13T03:38:02;21.13;;;19.83;;
70026;SDS011;57506;50.092;15.804;2023-10-13T03:40:29;22.20;;;20.90;;
70026;SDS011;57506;50.092;15.804;2023-10-13T03:42:55;21.90;;;20.60;;
70026;SDS011;57506;50.092;15.804;2023-10-13T03:45:36;20.93;;;19.63;;
70026;SDS011;57506;50.092;15.804;2023-10-13T03:48:05;20.80;;;19.50;;
70026;SDS011;57506;50.092;15.804;2023-10-13T03:50:38;22.10;;;20.80;;
70026;SDS011;57506;50.092;15.804;2023-10-13T03:53:23;21.92;;;20.63;;
70026;SDS011;57506;50.092;15.804;2023-10-13T03:55:50;22.85;;;21.45;;
70026;SDS011;57506;50.092;15.804;2023-10-13T03:58:33;21.27;;;19.97;;
70026;SDS011;57506;50.092;15.804;2023-10-13T04:01:00;21.35;;;20.05;;
70026;SDS011;57506;50.092;15.804;2023-10-13T04:03:25;22.45;;;21.05;;
70026;SDS011;57506;50.092;15.804;2023-10-13T04:06:06;21.45;;;20.15;;
70026;SDS011;57506;50.092;15.804;2023-10-13T04:08:33;23.48;;;22.08;;
70026;SDS011;57506;50.092;15.804;2023-10-13T04:11:07;22.77;;;21.37;;
70026;SDS011;57506;50.092;15.804;2023-10-13T04:13:51;22.30;;;20.95;;
70026;SDS011;57506;50.092;15.804;2023-10-13T04:16:35;22.75;;;21.35;;
70026;SDS011;57506;50.092;15.804;2023-10-13T04:19:01;22.05;;;20.75;;
70026;SDS011;57506;50.092;15.804;2023-10-13T04:21:27;26.13;;;24.38;;
70026;SDS011;57506;50.092;15.804;2023-10-13T04:24:21;22.77;;;21.37;;
70026;SDS011;57506;50.092;15.804;2023-10-13T04:27:24;23.40;;;22.00;;
70026;SDS011;57506;50.092;15.804;2023-10-13T04:30:19;22.45;;;21.05;;
70026;SDS011;57506;50.092;15.804;2023-10-13T04:32:51;22.90;;;21.50;;
70026;SDS011;57506;50.092;15.804;2023-10-13T04:35:37;22.90;;;21.50;;
70026;SDS011;57506;50.092;15.804;2023-10-13T04:38:12;22.80;;;21.40;;
70026;SDS011;57506;50.092;15.804;2023-10-13T04:40:45;22.15;;;20.85;;
70026;SDS011;57506;50.092;15.804;2023-10-13T04:43:24;23.80;;;22.40;;
70026;SDS011;57506;50.092;15.804;2023-10-13T04:46:18;22.33;;;21.00;;
70026;SDS011;57506;50.092;15.804;2023-10-13T04:49:00;22.00;;;20.70;;
70026;SDS011;57506;50.092;15.804;2023-10-13T04:51:34;23.37;;;21.97;;
70026;SDS011;57506;50.092;15.804;2023-10-13T04:54:24;22.83;;;21.42;;
70026;SDS011;57506;50.092;15.804;2023-10-13T04:57:11;22.27;;;20.95;;
70026;SDS011;57506;50.092;15.804;2023-10-13T04:59:49;22.95;;;21.55;;
70026;SDS011;57506;50.092;15.804;2023-10-13T05:02:34;22.65;;;21.25;;
70026;SDS011;57506;50.092;15.804;2023-10-13T05:05:01;21.47;;;20.17;;
70026;SDS011;57506;50.092;15.804;2023-10-13T05:07:39;22.98;;;21.58;;
70026;SDS011;57506;50.092;15.804;2023-10-13T05:10:24;22.67;;;21.27;;
70026;SDS011;57506;50.092;15.804;2023-10-13T05:13:08;22.77;;;21.38;;
70026;SDS011;57506;50.092;15.804;2023-10-13T05:15:52;22.88;;;21.48;;
70026;SDS011;57506;50.092;15.804;2023-10-13T05:18:36;22.97;;;21.57;;
70026;SDS011;57506;50.092;15.804;2023-10-13T05:21:21;23.15;;;21.75;;
70026;SDS011;57506;50.092;15.804;2023-10-13T05:24:05;23.10;;;21.70;;
70026;SDS011;57506;50.092;15.804;2023-10-13T05:26:50;23.48;;;22.08;;
70026;SDS011;57506;50.092;15.804;2023-10-13T05:29:39;23.10;;;21.70;;
70026;SDS011;57506;50.092;15.804;2023-10-13T05:32:27;22.00;;;20.70;;
70026;SDS011;57506;50.092;15.804;2023-10-13T05:35:11;22.98;;;21.58;;
70026;SDS011;57506;50.092;15.804;2023-10-13T05:37:56;23.85;;;22.45;;
70026;SDS011;57506;50.092;15.804;2023-10-13T05:40:40;22.27;;;20.90;;
70026;SDS011;57506;50.092;15.804;2023-10-13T05:43:34;23.63;;;22.23;;
70026;SDS011;57506;50.092;15.804;2023-10-13T05:46:18;22.63;;;21.23;;
70026;SDS011;57506;50.092;15.804;2023-10-13T05:48:50;23.10;;;21.70;;
70026;SDS011;57506;50.092;15.804;2023-10-13T05:51:28;21.33;;;20.02;;
70026;SDS011;57506;50.092;15.804;2023-10-13T05:53:58;23.17;;;21.77;;
70026;SDS011;57506;50.092;15.804;2023-10-13T05:56:46;23.08;;;21.67;;
70026;SDS011;57506;50.092;15.804;2023-10-13T05:59:32;23.10;;;21.70;;
70026;SDS011;57506;50.092;15.804;2023-10-13T06:02:18;22.67;;;21.27;;
70026;SDS011;57506;50.092;15.804;2023-10-13T06:05:03;22.73;;;21.33;;
70026;SDS011;57506;50.092;15.804;2023-10-13T06:07:48;23.30;;;21.90;;
70026;SDS011;57506;50.092;15.804;2023-10-13T06:10:31;22.92;;;21.52;;
70026;SDS011;57506;50.092;15.804;2023-10-13T06:13:16;23.77;;;22.37;;
70026;SDS011;57506;50.092;15.804;2023-10-13T06:16:00;23.10;;;21.70;;
70026;SDS011;57506;50.092;15.804;2023-10-13T06:18:48;23.05;;;21.65;;
70026;SDS011;57506;50.092;15.804;2023-10-13T06:21:32;23.42;;;22.02;;
70026;SDS011;57506;50.092;15.804;2023-10-13T06:24:16;23.45;;;22.05;;
70026;SDS011;57506;50.092;15.804;2023-10-13T06:27:00;21.57;;;20.27;;
70026;SDS011;57506;50.092;15.804;2023-10-13T06:29:44;23.25;;;21.85;;
70026;SDS011;57506;50.092;15.804;2023-10-13T06:32:11;23.02;;;21.63;;
70026;SDS011;57506;50.092;15.804;2023-10-13T06:34:37;23.85;;;22.45;;
70026;SDS011;57506;50.092;15.804;2023-10-13T06:37:06;23.83;;;22.43;;
70026;SDS011;57506;50.092;15.804;2023-10-13T06:39:50;23.33;;;21.92;;
70026;SDS011;57506;50.092;15.804;2023-10-13T06:42:39;24.48;;;22.98;;
70026;SDS011;57506;50.092;15.804;2023-10-13T06:45:08;23.58;;;22.17;;
70026;SDS011;57506;50.092;15.804;2023-10-13T06:47:34;24.20;;;22.73;;
70026;SDS011;57506;50.092;15.804;2023-10-13T06:50:06;23.77;;;22.38;;
70026;SDS011;57506;50.092;15.804;2023-10-13T06:52:41;23.38;;;21.98;;
70026;SDS011;57506;50.092;15.804;2023-10-13T06:55:10;24.33;;;22.83;;
70026;SDS011;57506;50.092;15.804;2023-10-13T06:57:46;22.40;;;21.02;;
70026;SDS011;57506;50.092;15.804;2023-10-13T07:00:12;23.87;;;22.47;;
70026;SDS011;57506;50.092;15.804;2023-10-13T07:02:59;23.77;;;22.38;;
70026;SDS011;57506;50.092;15.804;2023-10-13T07:05:38;24.08;;;22.67;;
70026;SDS011;57506;50.092;15.804;2023-10-13T07:08:05;23.63;;;22.23;;
70026;SDS011;57506;50.092;15.804;2023-10-13T07:10:31;23.85;;;22.45;;
70026;SDS011;57506;50.092;15.804;2023-10-13T07:13:10;22.57;;;21.17;;
70026;SDS011;57506;50.092;15.804;2023-10-13T07:15:39;23.30;;;21.90;;
70026;SDS011;57506;50.092;15.804;2023-10-13T07:18:13;24.42;;;22.92;;
70026;SDS011;57506;50.092;15.804;2023-10-13T07:20:41;24.17;;;22.70;;
70026;SDS011;57506;50.092;15.804;2023-10-13T07:23:11;23.63;;;22.23;;
70026;SDS011;57506;50.092;15.804;2023-10-13T07:25:43;23.87;;;22.47;;
70026;SDS011;57506;50.092;15.804;2023-10-13T07:28:20;22.80;;;21.40;;
70026;SDS011;57506;50.092;15.804;2023-10-13T07:30:46;24.98;;;23.48;;
70026;SDS011;57506;50.092;15.804;2023-10-13T07:33:34;22.27;;;20.92;;
70026;SDS011;57506;50.092;15.804;2023-10-13T07:36:06;22.47;;;21.07;;
70026;SDS011;57506;50.092;15.804;2023-10-13T07:39:02;23.00;;;21.60;;
70026;SDS011;57506;50.092;15.804;2023-10-13T07:41:49;23.40;;;22.00;;
70026;SDS011;57506;50.092;15.804;2023-10-13T07:44:32;24.00;;;22.60;;
70026;SDS011;57506;50.092;15.804;2023-10-13T07:47:01;24.27;;;22.80;;
70026;SDS011;57506;50.092;15.804;2023-10-13T07:49:30;25.30;;;23.80;;
70026;SDS011;57506;50.092;15.804;2023-10-13T07:51:58;23.40;;;22.00;;
70026;SDS011;57506;50.092;15.804;2023-10-13T07:54:28;24.88;;;23.38;;
70026;SDS011;57506;50.092;15.804;2023-10-13T07:56:54;24.52;;;23.02;;
70026;SDS011;57506;50.092;15.804;2023-10-13T07:59:22;22.67;;;21.27;;
70026;SDS011;57506;50.092;15.804;2023-10-13T08:01:49;23.02;;;21.63;;
70026;SDS011;57506;50.092;15.804;2023-10-13T08:04:34;24.70;;;23.20;;
70026;SDS011;57506;50.092;15.804;2023-10-13T08:07:02;24.35;;;22.85;;
70026;SDS011;57506;50.092;15.804;2023-10-13T08:09:37;24.85;;;23.35;;
70026;SDS011;57506;50.092;15.804;2023-10-13T08:12:08;23.13;;;21.73;;
70026;SDS011;57506;50.092;15.804;2023-10-13T08:14:37;23.08;;;21.67;;
70026;SDS011;57506;50.092;15.804;2023-10-13T08:17:08;23.92;;;22.52;;
70026;SDS011;57506;50.092;15.804;2023-10-13T08:19:38;23.50;;;22.10;;
70026;SDS011;57506;50.092;15.804;2023-10-13T08:22:14;23.85;;;22.45;;
70026;SDS011;57506;50.092;15.804;2023-10-13T08:24:43;23.87;;;22.47;;
70026;SDS011;57506;50.092;15.804;2023-10-13T08:27:09;22.38;;;21.02;;
70026;SDS011;57506;50.092;15.804;2023-10-13T08:29:54;25.35;;;23.85;;
70026;SDS011;57506;50.092;15.804;2023-10-13T08:32:23;23.67;;;22.27;;
70026;SDS011;57506;50.092;15.804;2023-10-13T08:34:52;23.77;;;22.38;;
70026;SDS011;57506;50.092;15.804;2023-10-13T08:37:19;25.23;;;23.73;;
70026;SDS011;57506;50.092;15.804;2023-10-13T08:39:48;22.75;;;21.35;;
70026;SDS011;57506;50.092;15.804;2023-10-13T08:42:23;25.80;;;24.30;;
70026;SDS011;57506;50.092;15.804;2023-10-13T08:45:09;24.37;;;22.87;;
70026;SDS011;57506;50.092;15.804;2023-10-13T08:47:48;23.45;;;22.05;;
70026;SDS011;57506;50.092;15.804;2023-10-13T08:50:32;25.02;;;23.52;;
70026;SDS011;57506;50.092;15.804;2023-10-13T08:53:32;24.92;;;23.42;;
70026;SDS011;57506;50.092;15.804;2023-10-13T08:56:17;25.58;;;24.08;;
70026;SDS011;57506;50.092;15.804;2023-10-13T09:01:19;24.35;;;22.77;;
70026;SDS011;57506;50.092;15.804;2023-10-13T09:04:12;29.63;;;25.40;;
70026;SDS011;57506;50.092;15.804;2023-10-13T09:07:01;23.65;;;22.25;;
70026;SDS011;57506;50.092;15.804;2023-10-13T09:09:31;24.58;;;23.08;;
70026;SDS011;57506;50.092;15.804;2023-10-13T09:12:12;24.90;;;23.40;;
70026;SDS011;57506;50.092;15.804;2023-10-13T09:14:43;25.08;;;23.58;;
70026;SDS011;57506;50.092;15.804;2023-10-13T09:17:10;24.85;;;23.35;;
70026;SDS011;57506;50.092;15.804;2023-10-13T09:19:50;23.50;;;22.10;;
70026;SDS011;57506;50.092;15.804;2023-10-13T09:22:26;24.67;;;23.17;;
70026;SDS011;57506;50.092;15.804;2023-10-13T09:24:58;21.33;;;20.03;;
70026;SDS011;57506;50.092;15.804;2023-10-13T09:27:26;24.92;;;23.42;;
70026;SDS011;57506;50.092;15.804;2023-10-13T09:30:00;26.52;;;24.92;;
70026;SDS011;57506;50.092;15.804;2023-10-13T09:32:43;24.30;;;22.80;;
70026;SDS011;57506;50.092;15.804;2023-10-13T09:35:20;23.65;;;22.25;;
70026;SDS011;57506;50.092;15.804;2023-10-13T09:37:52;25.33;;;23.83;;
70026;SDS011;57506;50.092;15.804;2023-10-13T09:40:21;24.58;;;23.08;;
70026;SDS011;57506;50.092;15.804;2023-10-13T09:43:10;25.35;;;23.85;;
70026;SDS011;57506;50.092;15.804;2023-10-13T09:45:40;26.40;;;23.92;;
70026;SDS011;57506;50.092;15.804;2023-10-13T09:48:45;25.77;;;24.27;;
70026;SDS011;57506;50.092;15.804;2023-10-13T09:51:18;23.60;;;22.20;;
70026;SDS011;57506;50.092;15.804;2023-10-13T09:54:10;25.88;;;24.38;;
70026;SDS011;57506;50.092;15.804;2023-10-13T09:56:43;27.20;;;25.60;;
70026;SDS011;57506;50.092;15.804;2023-10-13T09:59:21;25.35;;;23.85;;
70026;SDS011;57506;50.092;15.804;2023-10-13T10:01:50;25.67;;;24.17;;
70026;SDS011;57506;50.092;15.804;2023-10-13T10:04:23;26.27;;;24.67;;
70026;SDS011;57506;50.092;15.804;2023-10-13T10:09:31;26.60;;;25.00;;
70026;SDS011;57506;50.092;15.804;2023-10-13T10:17:38;26.77;;;25.17;;
70026;SDS011;57506;50.092;15.804;2023-10-13T10:20:06;24.08;;;22.65;;
70026;SDS011;57506;50.092;15.804;2023-10-13T10:22:39;28.23;;;26.52;;
70026;SDS011;57506;50.092;15.804;2023-10-13T10:25:09;25.43;;;23.93;;
70026;SDS011;57506;50.092;15.804;2023-10-13T10:27:57;25.13;;;23.63;;
70026;SDS011;57506;50.092;15.804;2023-10-13T10:30:24;26.17;;;24.58;;
70026;SDS011;57506;50.092;15.804;2023-10-13T10:32:53;25.23;;;23.73;;
70026;SDS011;57506;50.092;15.804;2023-10-13T10:35:32;27.65;;;26.05;;
70026;SDS011;57506;50.092;15.804;2023-10-13T10:43:38;27.95;;;26.30;;
70026;SDS011;57506;50.092;15.804;2023-10-13T10:46:14;26.77;;;25.17;;
70026;SDS011;57506;50.092;15.804;2023-10-13T10:48:50;27.40;;;25.70;;
70026;SDS011;57506;50.092;15.804;2023-10-13T10:51:21;24.10;;;22.67;;
70026;SDS011;57506;50.092;15.804;2023-10-13T10:53:51;31.17;;;27.92;;
70026;SDS011;57506;50.092;15.804;2023-10-13T10:56:24;25.80;;;24.27;;
70026;SDS011;57506;50.092;15.804;2023-10-13T10:59:02;26.08;;;24.52;;
70026;SDS011;57506;50.092;15.804;2023-10-13T11:01:43;27.50;;;25.90;;
70026;SDS011;57506;50.092;15.804;2023-10-13T11:04:16;24.13;;;22.70;;
70026;SDS011;57506;50.092;15.804;2023-10-13T11:06:55;26.80;;;25.20;;
70026;SDS011;57506;50.092;15.804;2023-10-13T11:11:57;25.35;;;23.85;;
70026;SDS011;57506;50.092;15.804;2023-10-13T11:14:48;27.80;;;26.20;;
70026;SDS011;57506;50.092;15.804;2023-10-13T11:17:25;26.50;;;24.90;;
70026;SDS011;57506;50.092;15.804;2023-10-13T11:20:13;26.90;;;25.30;;
70026;SDS011;57506;50.092;15.804;2023-10-13T11:22:47;27.08;;;25.48;;
70026;SDS011;57506;50.092;15.804;2023-10-13T11:25:55;27.45;;;25.85;;
70026;SDS011;57506;50.092;15.804;2023-10-13T11:31:05;25.53;;;24.03;;
70026;SDS011;57506;50.092;15.804;2023-10-13T11:33:43;24.77;;;23.27;;
70026;SDS011;57506;50.092;15.804;2023-10-13T11:36:12;27.48;;;25.88;;
70026;SDS011;57506;50.092;15.804;2023-10-13T11:38:43;28.13;;;26.42;;
70026;SDS011;57506;50.092;15.804;2023-10-13T11:41:14;27.23;;;25.63;;
70026;SDS011;57506;50.092;15.804;2023-10-13T11:46:16;27.05;;;25.45;;
70026;SDS011;57506;50.092;15.804;2023-10-13T11:49:04;27.50;;;25.90;;
70026;SDS011;57506;50.092;15.804;2023-10-13T11:51:43;26.13;;;24.52;;
70026;SDS011;57506;50.092;15.804;2023-10-13T11:54:13;26.02;;;24.50;;
70026;SDS011;57506;50.092;15.804;2023-10-13T11:56:47;24.37;;;22.87;;
70026;SDS011;57506;50.092;15.804;2023-10-13T11:59:13;23.83;;;22.42;;
70026;SDS011;57506;50.092;15.804;2023-10-13T12:01:46;27.52;;;25.92;;
70026;SDS011;57506;50.092;15.804;2023-10-13T12:04:34;25.67;;;24.17;;
70026;SDS011;57506;50.092;15.804;2023-10-13T12:07:07;27.17;;;25.58;;
70026;SDS011;57506;50.092;15.804;2023-10-13T12:09:51;26.00;;;24.47;;
70026;SDS011;57506;50.092;15.804;2023-10-13T12:12:21;25.90;;;24.40;;
70026;SDS011;57506;50.092;15.804;2023-10-13T12:14:51;27.67;;;26.08;;
70026;SDS011;57506;50.092;15.804;2023-10-13T12:17:24;25.55;;;24.05;;
70026;SDS011;57506;50.092;15.804;2023-10-13T12:19:53;27.35;;;25.75;;
70026;SDS011;57506;50.092;15.804;2023-10-13T12:22:20;26.53;;;24.93;;
70026;SDS011;57506;50.092;15.804;2023-10-13T12:25:03;27.33;;;25.73;;
70026;SDS011;57506;50.092;15.804;2023-10-13T12:27:50;26.95;;;25.35;;
70026;SDS011;57506;50.092;15.804;2023-10-13T12:30:21;27.77;;;26.17;;
70026;SDS011;57506;50.092;15.804;2023-10-13T12:33:00;26.40;;;24.80;;
70026;SDS011;57506;50.092;15.804;2023-10-13T12:35:34;25.33;;;23.83;;
70026;SDS011;57506;50.092;15.804;2023-10-13T12:38:02;26.45;;;24.85;;
70026;SDS011;57506;50.092;15.804;2023-10-13T12:40:33;27.35;;;25.75;;
70026;SDS011;57506;50.092;15.804;2023-10-13T12:43:17;25.52;;;23.98;;
70026;SDS011;57506;50.092;15.804;2023-10-13T12:46:01;28.15;;;26.45;;
70026;SDS011;57506;50.092;15.804;2023-10-13T12:48:45;24.97;;;23.47;;
70026;SDS011;57506;50.092;15.804;2023-10-13T12:51:29;27.58;;;25.98;;
70026;SDS011;57506;50.092;15.804;2023-10-13T12:53:57;27.63;;;26.02;;
70026;SDS011;57506;50.092;15.804;2023-10-13T12:56:38;25.25;;;23.75;;
70026;SDS011;57506;50.092;15.804;2023-10-13T12:59:07;30.25;;;28.00;;
70026;SDS011;57506;50.092;15.804;2023-10-13T13:01:35;25.70;;;24.20;;
70026;SDS011;57506;50.092;15.804;2023-10-13T13:04:02;25.73;;;24.23;;
70026;SDS011;57506;50.092;15.804;2023-10-13T13:06:29;27.45;;;25.85;;
70026;SDS011;57506;50.092;15.804;2023-10-13T13:08:56;26.02;;;24.50;;
70026;SDS011;57506;50.092;15.804;2023-10-13T13:11:22;27.65;;;26.05;;
70026;SDS011;57506;50.092;15.804;2023-10-13T13:13:48;28.07;;;26.37;;
70026;SDS011;57506;50.092;15.804;2023-10-13T13:16:17;26.83;;;25.23;;
70026;SDS011;57506;50.092;15.804;2023-10-13T13:18:44;27.50;;;25.90;;
70026;SDS011;57506;50.092;15.804;2023-10-13T13:21:10;28.20;;;26.50;;
70026;SDS011;57506;50.092;15.804;2023-10-13T13:23:45;26.30;;;24.70;;
70026;SDS011;57506;50.092;15.804;2023-10-13T13:26:11;28.37;;;26.67;;
70026;SDS011;57506;50.092;15.804;2023-10-13T13:28:43;27.40;;;25.80;;
70026;SDS011;57506;50.092;15.804;2023-10-13T13:31:15;27.60;;;26.00;;
70026;SDS011;57506;50.092;15.804;2023-10-13T13:33:41;28.33;;;26.65;;
70026;SDS011;57506;50.092;15.804;2023-10-13T13:36:12;27.60;;;26.00;;
70026;SDS011;57506;50.092;15.804;2023-10-13T13:38:44;30.53;;;28.27;;
70026;SDS011;57506;50.092;15.804;2023-10-13T13:41:19;28.08;;;26.38;;
70026;SDS011;57506;50.092;15.804;2023-10-13T13:43:46;29.95;;;28.15;;
70026;SDS011;57506;50.092;15.804;2023-10-13T13:46:20;26.25;;;24.65;;
70026;SDS011;57506;50.092;15.804;2023-10-13T13:48:58;28.48;;;26.77;;
70026;SDS011;57506;50.092;15.804;2023-10-13T13:51:26;28.67;;;26.97;;
70026;SDS011;57506;50.092;15.804;2023-10-13T13:53:53;28.08;;;26.40;;
70026;SDS011;57506;50.092;15.804;2023-10-13T13:56:20;26.50;;;24.90;;
70026;SDS011;57506;50.092;15.804;2023-10-13T13:58:46;27.73;;;26.13;;
70026;SDS011;57506;50.092;15.804;2023-10-13T14:01:13;28.02;;;26.38;;
70026;SDS011;57506;50.092;15.804;2023-10-13T14:03:43;27.63;;;26.02;;
70026;SDS011;57506;50.092;15.804;2023-10-13T14:06:12;26.08;;;24.52;;
70026;SDS011;57506;50.092;15.804;2023-10-13T14:08:42;27.95;;;26.30;;
70026;SDS011;57506;50.092;15.804;2023-10-13T14:11:10;27.07;;;25.47;;
70026;SDS011;57506;50.092;15.804;2023-10-13T14:13:39;28.98;;;27.27;;
70026;SDS011;57506;50.092;15.804;2023-10-13T14:16:17;28.13;;;26.42;;
70026;SDS011;57506;50.092;15.804;2023-10-13T14:18:45;27.83;;;26.20;;
70026;SDS011;57506;50.092;15.804;2023-10-13T14:21:12;30.88;;;28.23;;
70026;SDS011;57506;50.092;15.804;2023-10-13T14:23:50;26.87;;;25.27;;
70026;SDS011;57506;50.092;15.804;2023-10-13T14:26:20;26.90;;;25.30;;
70026;SDS011;57506;50.092;15.804;2023-10-13T14:28:47;28.40;;;26.70;;
70026;SDS011;57506;50.092;15.804;2023-10-13T14:31:39;29.65;;;27.38;;
70026;SDS011;57506;50.092;15.804;2023-10-13T14:34:06;29.08;;;27.38;;
70026;SDS011;57506;50.092;15.804;2023-10-13T14:36:32;26.73;;;25.13;;
70026;SDS011;57506;50.092;15.804;2023-10-13T14:39:02;27.80;;;26.17;;
70026;SDS011;57506;50.092;15.804;2023-10-13T14:41:34;27.88;;;26.17;;
70026;SDS011;57506;50.092;15.804;2023-10-13T14:44:00;28.25;;;26.55;;
70026;SDS011;57506;50.092;15.804;2023-10-13T14:46:30;26.77;;;25.17;;
70026;SDS011;57506;50.092;15.804;2023-10-13T14:48:56;26.63;;;25.02;;
70026;SDS011;57506;50.092;15.804;2023-10-13T14:51:22;27.75;;;26.15;;
70026;SDS011;57506;50.092;15.804;2023-10-13T14:53:50;26.35;;;24.75;;
70026;SDS011;57506;50.092;15.804;2023-10-13T14:56:21;27.10;;;25.50;;
70026;SDS011;57506;50.092;15.804;2023-10-13T14:58:50;26.60;;;25.00;;
70026;SDS011;57506;50.092;15.804;2023-10-13T15:01:22;25.60;;;24.10;;
70026;SDS011;57506;50.092;15.804;2023-10-13T15:03:52;26.88;;;25.27;;
70026;SDS011;57506;50.092;15.804;2023-10-13T15:06:22;26.45;;;24.85;;
70026;SDS011;57506;50.092;15.804;2023-10-13T15:08:56;27.60;;;26.00;;
70026;SDS011;57506;50.092;15.804;2023-10-13T15:11:23;26.45;;;24.85;;
70026;SDS011;57506;50.092;15.804;2023-10-13T15:13:55;25.08;;;23.58;;
70026;SDS011;57506;50.092;15.804;2023-10-13T15:16:22;25.33;;;23.83;;
70026;SDS011;57506;50.092;15.804;2023-10-13T15:18:50;26.67;;;25.08;;